Pagrindinis puslapis
METAR-TAF:

METAR-TAF

Oro uostai :

Bauerfildo tarptautinis oro uostas

Port Vila, Efatė, Vanuatu

platuma: 17-42S, ilguma: 168-18E, Aukštis: 20 m

Dabartinis oras

Ataskaita buvo paskelbta 2 valandos ir 7 minutes, ne 07:00 UTC
Vėjas 2 kt nuo kintamojo kryptimis
Temperatūra 22°C
Drėgmė 88%
Slėgis 1014 hPa
Matomumas 10 km arba daugiau
Išsisklaidę debesys ne aukštis 2000 ft
Su prošvaistėmis ne aukštis 4000 ft

METAR: NVVV 220700Z VRB02KT 9999 SCT020 BKN040 22/20 Q1014

Laikas: 20:07 (09:07 UTC)

Prognozė

Ataskaita buvo paskelbta 4 valandos ir 7 minutes, ne 05:00 UTC
Prognozė galioja nuo 22 metu 06 UTC su 23 metu 06 UTC
Vėjas 5 kt iš Rytų
Matomumas 10 km arba daugiau
Išsisklaidę debesys ne aukštis 2000 ft
Su prošvaistėmis ne aukštis 4000 ft
Tikimybė 30%
tarp IN ir TE UTC
Matomumas: 9000 m
Su prošvaistėmis ne aukštis 1600 ft
Apsiniaukę ne aukštis 3800 ft
lietus,

TAF: NVVV 220500Z 2206/2306 09005KT 9999 SCT020 BKN040 PROB30 INTER 2206/2212 9000 SHRA BKN016 OVC038

Orai ataskaitas ir orų prognozės (METAR, TAF).

turimą stotys yra geltonos ir raudonos taškus žemėlapyje.

Perkelti pele per norėdami pamatyti stoties vardą.

Tada spustelėkite, norėdami matyti oro stebėjimo ir prognozės.

Norėdami pakeisti žemėlapį: spustelėkite ant žalios mygtukų su juodo kryžiaus žemyn,; žalią mygtuką su brūkšneliu, jei norite nutolinti; arba žalių rodyklių gretimoms žemėlapius.


METAR-TAF: